sensor_id;sensor_type;location;lat;lon;timestamp;temperature;humidity
43772;HTU21D;59066;54.782;32.024;2023-07-20T00:00:29;14.84;86.39
43772;HTU21D;59066;54.782;32.024;2023-07-20T00:03:13;14.83;86.03
43772;HTU21D;59066;54.782;32.024;2023-07-20T00:05:44;14.79;86.00
43772;HTU21D;59066;54.782;32.024;2023-07-20T00:08:12;14.72;86.31
43772;HTU21D;59066;54.782;32.024;2023-07-20T00:10:40;14.69;86.54
43772;HTU21D;59066;54.782;32.024;2023-07-20T00:13:09;14.67;86.19
43772;HTU21D;59066;54.782;32.024;2023-07-20T00:15:37;14.60;86.08
43772;HTU21D;59066;54.782;32.024;2023-07-20T00:18:05;14.58;87.26
43772;HTU21D;59066;54.782;32.024;2023-07-20T00:20:32;14.59;86.50
43772;HTU21D;59066;54.782;32.024;2023-07-20T00:23:00;14.57;86.87
43772;HTU21D;59066;54.782;32.024;2023-07-20T00:25:27;14.55;86.24
43772;HTU21D;59066;54.782;32.024;2023-07-20T00:27:54;14.53;86.55
43772;HTU21D;59066;54.782;32.024;2023-07-20T00:30:22;14.53;87.16
43772;HTU21D;59066;54.782;32.024;2023-07-20T00:32:49;14.48;87.12
43772;HTU21D;59066;54.782;32.024;2023-07-20T00:35:17;14.45;87.62
43772;HTU21D;59066;54.782;32.024;2023-07-20T00:37:44;14.39;87.46
43772;HTU21D;59066;54.782;32.024;2023-07-20T00:40:12;14.38;87.35
43772;HTU21D;59066;54.782;32.024;2023-07-20T00:42:39;14.36;87.15
43772;HTU21D;59066;54.782;32.024;2023-07-20T00:45:07;14.28;87.32
43772;HTU21D;59066;54.782;32.024;2023-07-20T00:47:34;14.26;87.10
43772;HTU21D;59066;54.782;32.024;2023-07-20T00:50:02;14.25;87.83
43772;HTU21D;59066;54.782;32.024;2023-07-20T00:52:31;14.24;87.89
43772;HTU21D;59066;54.782;32.024;2023-07-20T00:54:58;14.22;88.18
43772;HTU21D;59066;54.782;32.024;2023-07-20T00:57:26;14.20;88.19
43772;HTU21D;59066;54.782;32.024;2023-07-20T00:59:54;14.22;88.15
43772;HTU21D;59066;54.782;32.024;2023-07-20T01:02:23;14.18;88.44
43772;HTU21D;59066;54.782;32.024;2023-07-20T01:04:50;14.18;88.88
43772;HTU21D;59066;54.782;32.024;2023-07-20T01:07:46;14.12;89.17
43772;HTU21D;59066;54.782;32.024;2023-07-20T01:10:20;14.11;88.77
43772;HTU21D;59066;54.782;32.024;2023-07-20T01:12:54;14.13;87.99
43772;HTU21D;59066;54.782;32.024;2023-07-20T01:15:22;14.07;88.15
43772;HTU21D;59066;54.782;32.024;2023-07-20T01:17:49;14.03;88.71
43772;HTU21D;59066;54.782;32.024;2023-07-20T01:20:19;14.03;88.50
43772;HTU21D;59066;54.782;32.024;2023-07-20T01:33:42;13.93;89.52
43772;HTU21D;59066;54.782;32.024;2023-07-20T01:36:10;13.93;89.60
43772;HTU21D;59066;54.782;32.024;2023-07-20T01:38:38;13.90;89.70
43772;HTU21D;59066;54.782;32.024;2023-07-20T01:41:06;13.86;89.57
43772;HTU21D;59066;54.782;32.024;2023-07-20T01:43:34;13.89;89.76
43772;HTU21D;59066;54.782;32.024;2023-07-20T01:46:01;13.84;89.83
43772;HTU21D;59066;54.782;32.024;2023-07-20T01:48:31;13.83;89.36
43772;HTU21D;59066;54.782;32.024;2023-07-20T01:50:59;13.82;90.21
43772;HTU21D;59066;54.782;32.024;2023-07-20T01:53:26;13.85;89.98
43772;HTU21D;59066;54.782;32.024;2023-07-20T01:55:54;13.79;90.04
43772;HTU21D;59066;54.782;32.024;2023-07-20T01:58:22;13.81;90.02
43772;HTU21D;59066;54.782;32.024;2023-07-20T02:00:49;13.81;90.35
43772;HTU21D;59066;54.782;32.024;2023-07-20T02:03:17;13.79;89.97
43772;HTU21D;59066;54.782;32.024;2023-07-20T02:05:45;13.79;90.27
43772;HTU21D;59066;54.782;32.024;2023-07-20T02:08:12;13.80;90.50
43772;HTU21D;59066;54.782;32.024;2023-07-20T02:10:40;13.78;90.21
43772;HTU21D;59066;54.782;32.024;2023-07-20T02:13:07;13.73;90.04
43772;HTU21D;59066;54.782;32.024;2023-07-20T02:15:35;13.76;89.51
43772;HTU21D;59066;54.782;32.024;2023-07-20T02:18:02;13.76;89.74
43772;HTU21D;59066;54.782;32.024;2023-07-20T02:20:34;13.76;90.19
43772;HTU21D;59066;54.782;32.024;2023-07-20T02:23:01;13.80;90.43
43772;HTU21D;59066;54.782;32.024;2023-07-20T02:25:29;13.78;90.33
43772;HTU21D;59066;54.782;32.024;2023-07-20T02:27:56;13.80;90.40
43772;HTU21D;59066;54.782;32.024;2023-07-20T02:30:25;13.78;90.21
43772;HTU21D;59066;54.782;32.024;2023-07-20T02:32:53;13.78;90.59
43772;HTU21D;59066;54.782;32.024;2023-07-20T02:35:21;13.76;90.28
43772;HTU21D;59066;54.782;32.024;2023-07-20T02:37:48;13.78;90.55
43772;HTU21D;59066;54.782;32.024;2023-07-20T02:40:16;13.89;90.58
43772;HTU21D;59066;54.782;32.024;2023-07-20T02:42:43;13.90;90.39
43772;HTU21D;59066;54.782;32.024;2023-07-20T02:45:11;13.95;90.67
43772;HTU21D;59066;54.782;32.024;2023-07-20T02:47:38;13.94;90.47
43772;HTU21D;59066;54.782;32.024;2023-07-20T02:50:09;13.95;90.77
43772;HTU21D;59066;54.782;32.024;2023-07-20T02:52:36;13.97;90.28
43772;HTU21D;59066;54.782;32.024;2023-07-20T02:55:04;14.00;90.78
43772;HTU21D;59066;54.782;32.024;2023-07-20T02:57:31;14.05;90.55
43772;HTU21D;59066;54.782;32.024;2023-07-20T02:59:59;14.08;90.82
43772;HTU21D;59066;54.782;32.024;2023-07-20T03:02:28;14.14;90.57
43772;HTU21D;59066;54.782;32.024;2023-07-20T03:04:55;14.20;90.19
43772;HTU21D;59066;54.782;32.024;2023-07-20T03:07:27;14.21;89.79
43772;HTU21D;59066;54.782;32.024;2023-07-20T03:09:55;14.26;88.96
43772;HTU21D;59066;54.782;32.024;2023-07-20T03:12:23;14.32;89.38
43772;HTU21D;59066;54.782;32.024;2023-07-20T03:14:51;14.34;89.63
43772;HTU21D;59066;54.782;32.024;2023-07-20T03:17:19;14.33;89.38
43772;HTU21D;59066;54.782;32.024;2023-07-20T03:19:47;14.43;89.09
43772;HTU21D;59066;54.782;32.024;2023-07-20T03:22:15;14.45;89.70
43772;HTU21D;59066;54.782;32.024;2023-07-20T03:24:42;14.43;89.14
43772;HTU21D;59066;54.782;32.024;2023-07-20T03:27:10;14.41;89.63
43772;HTU21D;59066;54.782;32.024;2023-07-20T03:29:37;14.40;89.83
43772;HTU21D;59066;54.782;32.024;2023-07-20T03:32:05;14.43;90.15
43772;HTU21D;59066;54.782;32.024;2023-07-20T03:34:34;14.45;89.76
43772;HTU21D;59066;54.782;32.024;2023-07-20T03:37:02;14.44;89.63
43772;HTU21D;59066;54.782;32.024;2023-07-20T03:39:32;14.48;89.22
43772;HTU21D;59066;54.782;32.024;2023-07-20T03:42:00;14.47;89.40
43772;HTU21D;59066;54.782;32.024;2023-07-20T03:44:27;14.52;89.18
43772;HTU21D;59066;54.782;32.024;2023-07-20T03:46:56;14.60;89.50
43772;HTU21D;59066;54.782;32.024;2023-07-20T03:49:23;14.64;89.51
43772;HTU21D;59066;54.782;32.024;2023-07-20T03:51:51;14.66;89.92
43772;HTU21D;59066;54.782;32.024;2023-07-20T03:54:18;14.72;89.61
43772;HTU21D;59066;54.782;32.024;2023-07-20T03:56:46;14.78;89.19
43772;HTU21D;59066;54.782;32.024;2023-07-20T03:59:13;14.80;88.44
43772;HTU21D;59066;54.782;32.024;2023-07-20T04:01:44;14.83;88.52
43772;HTU21D;59066;54.782;32.024;2023-07-20T04:04:15;14.81;88.76
43772;HTU21D;59066;54.782;32.024;2023-07-20T04:06:42;14.88;88.92
43772;HTU21D;59066;54.782;32.024;2023-07-20T04:09:13;14.98;88.47
43772;HTU21D;59066;54.782;32.024;2023-07-20T04:11:40;15.03;88.30
43772;HTU21D;59066;54.782;32.024;2023-07-20T04:14:08;15.08;87.37
43772;HTU21D;59066;54.782;32.024;2023-07-20T04:16:35;15.10;88.16
43772;HTU21D;59066;54.782;32.024;2023-07-20T04:19:03;15.10;87.99
43772;HTU21D;59066;54.782;32.024;2023-07-20T04:21:32;15.11;87.88
43772;HTU21D;59066;54.782;32.024;2023-07-20T04:24:00;15.07;88.18
43772;HTU21D;59066;54.782;32.024;2023-07-20T04:26:27;15.15;87.91
43772;HTU21D;59066;54.782;32.024;2023-07-20T04:28:55;15.13;87.42
43772;HTU21D;59066;54.782;32.024;2023-07-20T04:31:38;15.31;86.93
43772;HTU21D;59066;54.782;32.024;2023-07-20T04:34:05;15.38;87.09
43772;HTU21D;59066;54.782;32.024;2023-07-20T04:36:34;15.40;87.12
43772;HTU21D;59066;54.782;32.024;2023-07-20T04:39:03;15.42;87.17
43772;HTU21D;59066;54.782;32.024;2023-07-20T04:41:39;15.41;84.37
43772;HTU21D;59066;54.782;32.024;2023-07-20T04:44:07;15.45;86.44
43772;HTU21D;59066;54.782;32.024;2023-07-20T04:46:34;15.47;87.32
43772;HTU21D;59066;54.782;32.024;2023-07-20T04:49:03;15.56;87.35
43772;HTU21D;59066;54.782;32.024;2023-07-20T04:51:35;15.63;86.93
43772;HTU21D;59066;54.782;32.024;2023-07-20T04:54:02;15.71;86.36
43772;HTU21D;59066;54.782;32.024;2023-07-20T04:56:34;15.78;87.01
43772;HTU21D;59066;54.782;32.024;2023-07-20T04:59:04;15.83;86.63
43772;HTU21D;59066;54.782;32.024;2023-07-20T05:01:31;15.90;86.54
43772;HTU21D;59066;54.782;32.024;2023-07-20T05:03:59;15.90;86.19
43772;HTU21D;59066;54.782;32.024;2023-07-20T05:06:27;15.93;85.64
43772;HTU21D;59066;54.782;32.024;2023-07-20T05:08:54;16.01;85.71
43772;HTU21D;59066;54.782;32.024;2023-07-20T05:11:22;15.95;84.50
43772;HTU21D;59066;54.782;32.024;2023-07-20T05:13:50;15.95;85.18
43772;HTU21D;59066;54.782;32.024;2023-07-20T05:16:17;16.07;85.77
43772;HTU21D;59066;54.782;32.024;2023-07-20T05:18:45;16.10;85.52
43772;HTU21D;59066;54.782;32.024;2023-07-20T05:21:13;16.16;85.20
43772;HTU21D;59066;54.782;32.024;2023-07-20T05:23:41;16.15;84.84
43772;HTU21D;59066;54.782;32.024;2023-07-20T05:26:08;16.25;85.13
43772;HTU21D;59066;54.782;32.024;2023-07-20T05:28:36;16.34;84.28
43772;HTU21D;59066;54.782;32.024;2023-07-20T05:31:03;16.36;84.81
43772;HTU21D;59066;54.782;32.024;2023-07-20T05:33:31;16.51;84.64
43772;HTU21D;59066;54.782;32.024;2023-07-20T05:35:59;16.52;84.31
43772;HTU21D;59066;54.782;32.024;2023-07-20T05:38:27;16.50;84.39
43772;HTU21D;59066;54.782;32.024;2023-07-20T05:40:59;16.44;83.43
43772;HTU21D;59066;54.782;32.024;2023-07-20T05:43:28;16.50;84.34
43772;HTU21D;59066;54.782;32.024;2023-07-20T05:45:56;16.42;83.47
43772;HTU21D;59066;54.782;32.024;2023-07-20T05:48:23;16.44;83.80
43772;HTU21D;59066;54.782;32.024;2023-07-20T05:50:51;16.52;84.19
43772;HTU21D;59066;54.782;32.024;2023-07-20T05:53:18;16.58;84.03
43772;HTU21D;59066;54.782;32.024;2023-07-20T05:55:52;16.59;84.37
43772;HTU21D;59066;54.782;32.024;2023-07-20T05:58:19;16.59;83.45
43772;HTU21D;59066;54.782;32.024;2023-07-20T06:00:48;16.56;84.14
43772;HTU21D;59066;54.782;32.024;2023-07-20T06:03:16;16.54;83.39
43772;HTU21D;59066;54.782;32.024;2023-07-20T06:05:44;16.62;83.26
43772;HTU21D;59066;54.782;32.024;2023-07-20T06:08:11;16.63;83.13
43772;HTU21D;59066;54.782;32.024;2023-07-20T06:10:38;16.71;82.96
43772;HTU21D;59066;54.782;32.024;2023-07-20T06:13:08;16.88;82.84
43772;HTU21D;59066;54.782;32.024;2023-07-20T06:15:35;16.99;82.94
43772;HTU21D;59066;54.782;32.024;2023-07-20T06:18:03;17.08;83.55
43772;HTU21D;59066;54.782;32.024;2023-07-20T06:20:31;17.18;81.99
43772;HTU21D;59066;54.782;32.024;2023-07-20T06:22:58;17.35;81.83
43772;HTU21D;59066;54.782;32.024;2023-07-20T06:25:26;17.38;80.98
43772;HTU21D;59066;54.782;32.024;2023-07-20T06:27:55;17.45;81.54
43772;HTU21D;59066;54.782;32.024;2023-07-20T06:30:23;17.45;80.65
43772;HTU21D;59066;54.782;32.024;2023-07-20T06:32:51;17.39;80.85
43772;HTU21D;59066;54.782;32.024;2023-07-20T06:35:19;17.41;80.94
43772;HTU21D;59066;54.782;32.024;2023-07-20T06:37:46;17.44;80.52
43772;HTU21D;59066;54.782;32.024;2023-07-20T06:40:13;17.37;79.97
43772;HTU21D;59066;54.782;32.024;2023-07-20T06:42:44;17.33;79.50
43772;HTU21D;59066;54.782;32.024;2023-07-20T06:45:14;17.36;80.20
43772;HTU21D;59066;54.782;32.024;2023-07-20T06:47:42;17.33;80.22
43772;HTU21D;59066;54.782;32.024;2023-07-20T06:50:10;17.36;80.00
43772;HTU21D;59066;54.782;32.024;2023-07-20T06:52:43;17.49;80.10
43772;HTU21D;59066;54.782;32.024;2023-07-20T06:55:10;17.55;79.78
43772;HTU21D;59066;54.782;32.024;2023-07-20T06:57:38;17.41;77.89
43772;HTU21D;59066;54.782;32.024;2023-07-20T07:00:06;17.34;79.99
43772;HTU21D;59066;54.782;32.024;2023-07-20T07:02:34;17.47;79.44
43772;HTU21D;59066;54.782;32.024;2023-07-20T07:05:02;17.58;79.00
43772;HTU21D;59066;54.782;32.024;2023-07-20T07:07:46;17.83;79.61
43772;HTU21D;59066;54.782;32.024;2023-07-20T07:10:13;17.93;79.92
43772;HTU21D;59066;54.782;32.024;2023-07-20T07:12:40;17.95;79.55
43772;HTU21D;59066;54.782;32.024;2023-07-20T07:15:08;18.00;78.86
43772;HTU21D;59066;54.782;32.024;2023-07-20T07:17:37;18.02;78.92
43772;HTU21D;59066;54.782;32.024;2023-07-20T07:20:06;18.04;78.82
43772;HTU21D;59066;54.782;32.024;2023-07-20T07:22:36;18.05;79.20
43772;HTU21D;59066;54.782;32.024;2023-07-20T07:25:05;18.02;78.44
43772;HTU21D;59066;54.782;32.024;2023-07-20T07:27:32;17.96;77.01
43772;HTU21D;59066;54.782;32.024;2023-07-20T07:30:00;18.15;78.54
43772;HTU21D;59066;54.782;32.024;2023-07-20T07:32:27;18.27;76.79
43772;HTU21D;59066;54.782;32.024;2023-07-20T07:34:55;18.09;78.00
43772;HTU21D;59066;54.782;32.024;2023-07-20T07:37:23;18.14;77.54
43772;HTU21D;59066;54.782;32.024;2023-07-20T07:39:50;18.13;76.82
43772;HTU21D;59066;54.782;32.024;2023-07-20T07:42:18;18.17;77.54
43772;HTU21D;59066;54.782;32.024;2023-07-20T07:44:46;18.30;77.15
43772;HTU21D;59066;54.782;32.024;2023-07-20T07:47:14;18.14;75.84
43772;HTU21D;59066;54.782;32.024;2023-07-20T07:49:42;18.13;76.37
43772;HTU21D;59066;54.782;32.024;2023-07-20T07:52:12;18.26;76.89
43772;HTU21D;59066;54.782;32.024;2023-07-20T07:54:41;18.29;76.37
43772;HTU21D;59066;54.782;32.024;2023-07-20T07:57:08;18.26;75.74
43772;HTU21D;59066;54.782;32.024;2023-07-20T07:59:36;18.38;76.46
43772;HTU21D;59066;54.782;32.024;2023-07-20T08:02:05;18.52;75.77
43772;HTU21D;59066;54.782;32.024;2023-07-20T08:04:33;18.64;75.86
43772;HTU21D;59066;54.782;32.024;2023-07-20T08:07:04;18.58;76.16
43772;HTU21D;59066;54.782;32.024;2023-07-20T08:09:31;18.52;75.45
43772;HTU21D;59066;54.782;32.024;2023-07-20T08:11:59;18.50;76.09
43772;HTU21D;59066;54.782;32.024;2023-07-20T08:14:27;18.41;75.37
43772;HTU21D;59066;54.782;32.024;2023-07-20T08:16:54;18.38;75.67
43772;HTU21D;59066;54.782;32.024;2023-07-20T08:19:23;18.53;75.09
43772;HTU21D;59066;54.782;32.024;2023-07-20T08:21:51;18.55;76.53
43772;HTU21D;59066;54.782;32.024;2023-07-20T08:24:18;18.34;75.60
43772;HTU21D;59066;54.782;32.024;2023-07-20T08:26:49;18.37;75.97
43772;HTU21D;59066;54.782;32.024;2023-07-20T08:29:16;18.43;75.50
43772;HTU21D;59066;54.782;32.024;2023-07-20T08:31:43;18.72;77.20
43772;HTU21D;59066;54.782;32.024;2023-07-20T08:34:11;18.80;75.29
43772;HTU21D;59066;54.782;32.024;2023-07-20T08:36:55;19.02;75.57
43772;HTU21D;59066;54.782;32.024;2023-07-20T08:39:23;19.15;75.69
43772;HTU21D;59066;54.782;32.024;2023-07-20T08:41:51;19.16;73.58
43772;HTU21D;59066;54.782;32.024;2023-07-20T08:44:21;19.20;75.91
43772;HTU21D;59066;54.782;32.024;2023-07-20T08:46:51;19.11;74.47
43772;HTU21D;59066;54.782;32.024;2023-07-20T08:49:19;19.08;75.20
43772;HTU21D;59066;54.782;32.024;2023-07-20T08:51:48;19.30;76.45
43772;HTU21D;59066;54.782;32.024;2023-07-20T08:54:16;19.57;75.67
43772;HTU21D;59066;54.782;32.024;2023-07-20T08:56:45;19.65;75.01
43772;HTU21D;59066;54.782;32.024;2023-07-20T08:59:15;19.53;74.71
43772;HTU21D;59066;54.782;32.024;2023-07-20T09:01:44;19.66;77.50
43772;HTU21D;59066;54.782;32.024;2023-07-20T09:04:12;19.61;75.99
43772;HTU21D;59066;54.782;32.024;2023-07-20T09:06:39;19.70;76.33
43772;HTU21D;59066;54.782;32.024;2023-07-20T09:09:11;19.89;73.64
43772;HTU21D;59066;54.782;32.024;2023-07-20T09:11:38;19.83;74.28
43772;HTU21D;59066;54.782;32.024;2023-07-20T09:14:09;19.89;74.27
43772;HTU21D;59066;54.782;32.024;2023-07-20T09:17:06;20.05;71.03
43772;HTU21D;59066;54.782;32.024;2023-07-20T09:19:45;20.21;75.18
43772;HTU21D;59066;54.782;32.024;2023-07-20T09:22:13;20.37;76.38
43772;HTU21D;59066;54.782;32.024;2023-07-20T09:24:41;20.27;75.35
43772;HTU21D;59066;54.782;32.024;2023-07-20T09:27:10;20.06;74.40
43772;HTU21D;59066;54.782;32.024;2023-07-20T09:29:51;20.02;72.09
43772;HTU21D;59066;54.782;32.024;2023-07-20T09:32:20;20.03;74.24
43772;HTU21D;59066;54.782;32.024;2023-07-20T09:34:51;19.96;72.59
43772;HTU21D;59066;54.782;32.024;2023-07-20T09:37:23;19.94;74.23
43772;HTU21D;59066;54.782;32.024;2023-07-20T09:39:52;19.89;73.58
43772;HTU21D;59066;54.782;32.024;2023-07-20T09:42:24;19.94;74.35
43772;HTU21D;59066;54.782;32.024;2023-07-20T09:44:56;19.90;73.70
43772;HTU21D;59066;54.782;32.024;2023-07-20T09:47:24;20.03;73.25
43772;HTU21D;59066;54.782;32.024;2023-07-20T09:50:00;20.35;73.62
43772;HTU21D;59066;54.782;32.024;2023-07-20T09:52:31;20.57;73.59
43772;HTU21D;59066;54.782;32.024;2023-07-20T09:55:02;20.53;74.46
43772;HTU21D;59066;54.782;32.024;2023-07-20T09:57:32;20.56;72.35
43772;HTU21D;59066;54.782;32.024;2023-07-20T10:00:00;20.62;71.61
43772;HTU21D;59066;54.782;32.024;2023-07-20T10:02:43;20.86;70.99
43772;HTU21D;59066;54.782;32.024;2023-07-20T10:05:12;21.00;71.98
43772;HTU21D;59066;54.782;32.024;2023-07-20T10:07:47;20.94;71.77
43772;HTU21D;59066;54.782;32.024;2023-07-20T10:10:16;21.33;73.37
43772;HTU21D;59066;54.782;32.024;2023-07-20T10:12:47;21.61;72.93
43772;HTU21D;59066;54.782;32.024;2023-07-20T10:15:29;21.95;70.61
43772;HTU21D;59066;54.782;32.024;2023-07-20T10:18:02;22.39;74.24
43772;HTU21D;59066;54.782;32.024;2023-07-20T10:20:31;22.36;71.86
43772;HTU21D;59066;54.782;32.024;2023-07-20T10:23:00;22.07;70.51
43772;HTU21D;59066;54.782;32.024;2023-07-20T10:25:29;21.94;69.04
43772;HTU21D;59066;54.782;32.024;2023-07-20T10:27:57;21.62;69.38
43772;HTU21D;59066;54.782;32.024;2023-07-20T10:30:26;21.37;69.55
43772;HTU21D;59066;54.782;32.024;2023-07-20T10:32:54;21.06;69.16
43772;HTU21D;59066;54.782;32.024;2023-07-20T10:35:22;21.00;69.15
43772;HTU21D;59066;54.782;32.024;2023-07-20T10:37:51;20.62;69.46
43772;HTU21D;59066;54.782;32.024;2023-07-20T10:40:36;20.54;71.10
43772;HTU21D;59066;54.782;32.024;2023-07-20T10:43:06;20.85;73.57
43772;HTU21D;59066;54.782;32.024;2023-07-20T10:45:49;21.16;69.36
43772;HTU21D;59066;54.782;32.024;2023-07-20T10:48:22;21.05;72.29
43772;HTU21D;59066;54.782;32.024;2023-07-20T10:51:19;21.28;66.95
43772;HTU21D;59066;54.782;32.024;2023-07-20T10:53:50;21.51;73.46
43772;HTU21D;59066;54.782;32.024;2023-07-20T10:56:20;21.46;74.83
43772;HTU21D;59066;54.782;32.024;2023-07-20T10:58:48;21.82;74.40
43772;HTU21D;59066;54.782;32.024;2023-07-20T11:01:17;22.39;73.39
43772;HTU21D;59066;54.782;32.024;2023-07-20T11:03:49;23.25;73.81
43772;HTU21D;59066;54.782;32.024;2023-07-20T11:09:06;24.36;62.30
43772;HTU21D;59066;54.782;32.024;2023-07-20T11:11:39;24.55;70.81
43772;HTU21D;59066;54.782;32.024;2023-07-20T11:14:11;25.12;68.36
43772;HTU21D;59066;54.782;32.024;2023-07-20T11:16:48;25.78;70.04
43772;HTU21D;59066;54.782;32.024;2023-07-20T11:19:23;25.66;65.06
43772;HTU21D;59066;54.782;32.024;2023-07-20T11:21:58;25.75;64.63
43772;HTU21D;59066;54.782;32.024;2023-07-20T11:24:30;25.77;64.20
43772;HTU21D;59066;54.782;32.024;2023-07-20T11:26:58;25.52;65.20
43772;HTU21D;59066;54.782;32.024;2023-07-20T11:29:26;25.61;63.16
43772;HTU21D;59066;54.782;32.024;2023-07-20T11:32:00;25.72;65.73
43772;HTU21D;59066;54.782;32.024;2023-07-20T11:34:30;25.59;63.81
43772;HTU21D;59066;54.782;32.024;2023-07-20T11:36:58;24.90;64.14
43772;HTU21D;59066;54.782;32.024;2023-07-20T11:39:29;24.12;62.54
43772;HTU21D;59066;54.782;32.024;2023-07-20T11:41:56;23.53;61.17
43772;HTU21D;59066;54.782;32.024;2023-07-20T11:44:26;23.09;64.12
43772;HTU21D;59066;54.782;32.024;2023-07-20T11:47:21;22.55;59.46
43772;HTU21D;59066;54.782;32.024;2023-07-20T11:49:48;22.56;65.01
43772;HTU21D;59066;54.782;32.024;2023-07-20T11:52:23;22.87;66.78
43772;HTU21D;59066;54.782;32.024;2023-07-20T11:54:50;23.96;70.90
43772;HTU21D;59066;54.782;32.024;2023-07-20T11:57:20;24.18;70.81
43772;HTU21D;59066;54.782;32.024;2023-07-20T11:59:54;24.27;66.75
43772;HTU21D;59066;54.782;32.024;2023-07-20T12:02:27;24.65;69.55
43772;HTU21D;59066;54.782;32.024;2023-07-20T12:04:55;25.31;71.26
43772;HTU21D;59066;54.782;32.024;2023-07-20T12:07:28;25.90;69.18
43772;HTU21D;59066;54.782;32.024;2023-07-20T12:10:11;26.85;56.91
43772;HTU21D;59066;54.782;32.024;2023-07-20T12:12:41;27.39;67.44
43772;HTU21D;59066;54.782;32.024;2023-07-20T12:15:22;27.34;55.61
43772;HTU21D;59066;54.782;32.024;2023-07-20T12:17:55;28.06;64.86
43772;HTU21D;59066;54.782;32.024;2023-07-20T12:20:31;28.69;63.61
43772;HTU21D;59066;54.782;32.024;2023-07-20T12:23:08;28.98;57.71
43772;HTU21D;59066;54.782;32.024;2023-07-20T12:25:41;28.91;60.76
43772;HTU21D;59066;54.782;32.024;2023-07-20T12:28:13;28.58;60.83
43772;HTU21D;59066;54.782;32.024;2023-07-20T12:30:43;28.00;60.91
43772;HTU21D;59066;54.782;32.024;2023-07-20T12:33:12;27.52;58.90
43772;HTU21D;59066;54.782;32.024;2023-07-20T12:35:43;27.28;61.46
43772;HTU21D;59066;54.782;32.024;2023-07-20T12:38:11;27.50;62.84
43772;HTU21D;59066;54.782;32.024;2023-07-20T12:40:38;28.02;63.02
43772;HTU21D;59066;54.782;32.024;2023-07-20T12:43:06;27.69;62.05
43772;HTU21D;59066;54.782;32.024;2023-07-20T12:45:34;27.53;62.87
43772;HTU21D;59066;54.782;32.024;2023-07-20T12:48:01;28.04;62.37
43772;HTU21D;59066;54.782;32.024;2023-07-20T12:50:28;29.01;63.24
43772;HTU21D;59066;54.782;32.024;2023-07-20T12:52:58;29.09;64.05
43772;HTU21D;59066;54.782;32.024;2023-07-20T12:55:26;28.59;62.86
43772;HTU21D;59066;54.782;32.024;2023-07-20T12:57:54;27.89;60.70
43772;HTU21D;59066;54.782;32.024;2023-07-20T13:00:21;26.82;59.74
43772;HTU21D;59066;54.782;32.024;2023-07-20T13:02:50;26.17;58.64
43772;HTU21D;59066;54.782;32.024;2023-07-20T13:05:35;25.72;59.85
43772;HTU21D;59066;54.782;32.024;2023-07-20T13:08:05;25.27;60.99
43772;HTU21D;59066;54.782;32.024;2023-07-20T13:10:36;24.87;61.73
43772;HTU21D;59066;54.782;32.024;2023-07-20T13:13:04;24.68;62.97
43772;HTU21D;59066;54.782;32.024;2023-07-20T13:15:32;24.39;63.16
43772;HTU21D;59066;54.782;32.024;2023-07-20T13:18:00;24.15;63.69
43772;HTU21D;59066;54.782;32.024;2023-07-20T13:20:27;24.51;64.78
43772;HTU21D;59066;54.782;32.024;2023-07-20T13:22:55;24.78;65.64
43772;HTU21D;59066;54.782;32.024;2023-07-20T13:25:24;25.00;65.79
43772;HTU21D;59066;54.782;32.024;2023-07-20T13:27:51;25.28;66.45
43772;HTU21D;59066;54.782;32.024;2023-07-20T13:30:19;24.90;64.71
43772;HTU21D;59066;54.782;32.024;2023-07-20T13:32:48;24.48;66.21
43772;HTU21D;59066;54.782;32.024;2023-07-20T13:35:16;24.47;66.09
43772;HTU21D;59066;54.782;32.024;2023-07-20T13:37:44;24.33;65.80
43772;HTU21D;59066;54.782;32.024;2023-07-20T13:40:12;24.11;64.97
43772;HTU21D;59066;54.782;32.024;2023-07-20T13:42:40;23.92;64.55
43772;HTU21D;59066;54.782;32.024;2023-07-20T13:45:08;23.90;67.68
43772;HTU21D;59066;54.782;32.024;2023-07-20T13:47:36;23.70;66.51
43772;HTU21D;59066;54.782;32.024;2023-07-20T13:50:04;23.75;65.82
43772;HTU21D;59066;54.782;32.024;2023-07-20T13:52:32;24.23;66.99
43772;HTU21D;59066;54.782;32.024;2023-07-20T13:55:02;24.58;67.02
43772;HTU21D;59066;54.782;32.024;2023-07-20T13:57:31;24.55;65.99
43772;HTU21D;59066;54.782;32.024;2023-07-20T14:00:02;24.63;65.59
43772;HTU21D;59066;54.782;32.024;2023-07-20T14:02:41;25.13;68.80
43772;HTU21D;59066;54.782;32.024;2023-07-20T14:05:11;25.69;67.19
43772;HTU21D;59066;54.782;32.024;2023-07-20T14:07:42;26.06;67.91
43772;HTU21D;59066;54.782;32.024;2023-07-20T14:10:10;26.68;69.65
43772;HTU21D;59066;54.782;32.024;2023-07-20T14:12:41;26.91;68.84
43772;HTU21D;59066;54.782;32.024;2023-07-20T14:15:09;26.95;64.75
43772;HTU21D;59066;54.782;32.024;2023-07-20T14:17:37;27.55;67.40
43772;HTU21D;59066;54.782;32.024;2023-07-20T14:20:05;27.84;62.57
43772;HTU21D;59066;54.782;32.024;2023-07-20T14:22:47;27.56;63.76
43772;HTU21D;59066;54.782;32.024;2023-07-20T14:25:17;27.66;63.86
43772;HTU21D;59066;54.782;32.024;2023-07-20T14:27:48;27.95;63.93
43772;HTU21D;59066;54.782;32.024;2023-07-20T14:30:15;28.60;65.33
43772;HTU21D;59066;54.782;32.024;2023-07-20T14:32:43;29.13;67.36
43772;HTU21D;59066;54.782;32.024;2023-07-20T14:35:11;29.66;64.61
43772;HTU21D;59066;54.782;32.024;2023-07-20T14:37:39;29.17;65.11
43772;HTU21D;59066;54.782;32.024;2023-07-20T14:40:07;29.16;61.74
43772;HTU21D;59066;54.782;32.024;2023-07-20T14:42:35;28.99;63.66
43772;HTU21D;59066;54.782;32.024;2023-07-20T14:45:03;28.67;63.38
43772;HTU21D;59066;54.782;32.024;2023-07-20T14:47:32;28.12;62.50
43772;HTU21D;59066;54.782;32.024;2023-07-20T14:50:02;27.89;59.87
43772;HTU21D;59066;54.782;32.024;2023-07-20T14:52:30;27.27;61.96
43772;HTU21D;59066;54.782;32.024;2023-07-20T14:54:57;26.95;62.28
43772;HTU21D;59066;54.782;32.024;2023-07-20T14:57:25;26.63;62.08
43772;HTU21D;59066;54.782;32.024;2023-07-20T14:59:55;26.28;62.12
43772;HTU21D;59066;54.782;32.024;2023-07-20T15:02:22;25.96;62.76
43772;HTU21D;59066;54.782;32.024;2023-07-20T15:04:51;25.61;61.97
43772;HTU21D;59066;54.782;32.024;2023-07-20T15:07:19;25.33;64.60
43772;HTU21D;59066;54.782;32.024;2023-07-20T15:09:47;24.87;61.72
43772;HTU21D;59066;54.782;32.024;2023-07-20T15:12:14;24.56;63.41
43772;HTU21D;59066;54.782;32.024;2023-07-20T15:14:43;24.29;62.16
43772;HTU21D;59066;54.782;32.024;2023-07-20T15:17:10;24.12;63.89
43772;HTU21D;59066;54.782;32.024;2023-07-20T15:19:38;23.84;63.83
43772;HTU21D;59066;54.782;32.024;2023-07-20T15:22:08;23.47;64.43
43772;HTU21D;59066;54.782;32.024;2023-07-20T15:24:36;23.24;64.56
43772;HTU21D;59066;54.782;32.024;2023-07-20T15:27:04;23.16;64.34
43772;HTU21D;59066;54.782;32.024;2023-07-20T15:29:31;22.99;65.22